This is the latest recevied weather packets stored in our database for station/object VY2CRA-4. If no packets are shown the sender has not sent any weather packets the latest 10 day(s).
| Time | Temp. | Humidity | Pressure | Rain* | Wind** | Luminosity | Snow |
|---|---|---|---|---|---|---|---|
| 1777917970 | 17.22° C | 34% | 996.5 hPa | 0 mm | - | - | - |
| 1777916770 | 17.22° C | 36% | 996.6 hPa | 0 mm | - | - | - |
| 1777915568 | 17.22° C | 37% | 996.2 hPa | 0 mm | - | - | - |
| 1777914368 | 17.22° C | 37% | 996.1 hPa | 0 mm | - | - | - |
| 1777913166 | 17.22° C | 37% | 995.7 hPa | 0 mm | - | - | - |
| 1777911965 | 17.22° C | 38% | 995.5 hPa | 0 mm | - | - | - |
| 1777910764 | 17.22° C | 39% | 995.4 hPa | 0 mm | - | - | - |
| 1777909564 | 17.22° C | 39% | 995.1 hPa | 0 mm | - | - | - |
| 1777908364 | 17.22° C | 40% | 994.9 hPa | 0 mm | - | - | - |
| 1777907162 | 16.67° C | 43% | 994.9 hPa | 0 mm | - | - | - |
| 1777905962 | 15.56° C | 45% | 994.7 hPa | 0 mm | - | - | - |
| 1777904759 | 15.56° C | 46% | 994.3 hPa | 0 mm | - | - | - |
| 1777903559 | 15° C | 47% | 994.1 hPa | 0 mm | - | - | - |
| 1777902357 | 14.44° C | 48% | 993.8 hPa | 0 mm | - | - | - |
| 1777901158 | 13.89° C | 50% | 993.2 hPa | 0 mm | - | - | - |
| 1777899957 | 13.89° C | 49% | 993 hPa | 0 mm | - | - | - |
| 1777898756 | 14.44° C | 49% | 992.6 hPa | 0 mm | - | - | - |
| 1777897556 | 14.44° C | 48% | 992 hPa | 0 mm | - | - | - |
| 1777896354 | 15.56° C | 48% | 991.5 hPa | 0 mm | - | - | - |
| 1777895152 | 15° C | 52% | 991 hPa | 0 mm | - | - | - |
| 1777893951 | 12.78° C | 59% | 990.6 hPa | 0 mm | - | - | - |
| 1777892750 | 10.56° C | 66% | 990 hPa | 0 mm | - | - | - |
| 1777891549 | 8.33° C | 72% | 989.3 hPa | 0 mm | - | - | - |
| 1777890350 | 7.22° C | 73% | 988.7 hPa | 0 mm | - | - | - |
| 1777889149 | 7.22° C | 73% | 988.1 hPa | 0 mm | - | - | - |
* Rain since midnight (hover to see other rain measurements)
** Current wind speed in m/s (hover to see current wind gust speed)